ZBAA Airport Information

Runway Information
Runway 18R Length 10499 ft width 164 ft Elevation 116 ft Threshold N/A Heading 173
Runway 36L Length 10499 ft Width 164 ft Elevation 107 ft Threshold N/A Heading 353
Runway 18L Length 12468 ft width 197 ft Elevation 110 ft Threshold N/A Heading 173
Runway 36R Length 12468 ft Width 197 ft Elevation 99 ft Threshold N/A Heading 353
Runway 01 Length 12468 ft width 197 ft Elevation 94 ft Threshold N/A Heading 353
Runway 19 Length 12468 ft Width 197 ft Elevation 84 ft Threshold N/A Heading 173
Airport Frequencies
Type APP Name BEIJING AP Frequency 119.6 MHZ
Type APP Name BEIJING AP Frequency 126.1 MHZ
Type APP Name BEIJING AP Frequency 120.6 MHZ
Type APP Name BEIJING AP Frequency 119.7 MHZ
Type APP Name BEIJING AP Frequency 127.75 MHZ
Type APP Name BEIJING AP Frequency 121.1 MHZ
Type ATIS Name BEIJING AT Frequency 127.6 MHZ
Type CLD Name BEIJING DE Frequency 121.6 MHZ
Type GND Name GND EAST Frequency 121.7 MHZ
Type GND Name GND WEST Frequency 121.9 MHZ
Type GND Name BEIJING GN Frequency 121.7 MHZ
Type TWR Name BEIJING EA Frequency 118.5 MHZ
Type TWR Name BEIJING W Frequency 124.3 MHZ
Airport Navaids
Type VOR-DME Name Beijing Frequency 114700 KHZ
Type VOR-DME Name Shaziying Frequency 117200 KHZ
Airport Weather Information & NOTAM
ADDS - METARS form results

(2343 UTC 03 December 2022)
Data provider http://aviationweather.gov/metar/data/
 
METAR text: ZBAA 032330Z 35001MPS CAVOK M13/M17 Q1038 NOSIG
Conditions at: ZBAA (BEIJING/PEKING , CN) observed 2330 UTC 03 December 2022
Temperature: -13.0°C ( 9°F)
Dewpoint: -17.0°C ( 1°F) [RH = 72%]
Pressure (altimeter): 30.65 inches Hg (1038.0 mb)
Winds: from the N (350 degrees) at 2 MPH (2 knots; 1.0 m/s)
Visibility: 6 or more miles (10+ km)
Ceiling: ceiling and visibility are OK
Clouds: unknown
Weather: no significant weather observed at this time

METAR text: ZBAA 032300Z VRB01MPS CAVOK M14/M16 Q1038 NOSIG
Conditions at: ZBAA (BEIJING/PEKING , CN) observed 2300 UTC 03 December 2022
Temperature: -14.0°C ( 7°F)
Dewpoint: -16.0°C ( 3°F) [RH = 85%]
Pressure (altimeter): 30.65 inches Hg (1038.0 mb)
Winds: variable direction winds at 2 MPH (2 knots; 1.0 m/s)
Visibility: 6 or more miles (10+ km)
Ceiling: ceiling and visibility are OK
Clouds: unknown
Weather: no significant weather observed at this time

Forecast for: ZBAA (BEIJING/PEKING , CN)
Text: TAF ZBAA 032100Z 0400/0424 33004MPS CAVOK TX02/0407Z TNM11/0421Z
Forecast period: 0000 UTC 04 December 2022 to 0000 UTC 05 December 2022
Forecast type: FROM: standard forecast or significant change
Winds: from the NNW (330 degrees) at 9 MPH (8 knots; 4.1 m/s)
Visibility: 6 or more miles (10+ km)
Ceiling: unknown
Clouds: missing
Weather: no significant weather forecast for this period